Mandan, ND

8:30 AM CDT on August 16, 2017 (GMT -0500)
Mandan

Weather History for KY19 - March, 2013

Change the Weather History Date:

Sunday, March 10, 2013

  Actual Average (KBIS) Record (KBIS)
Temperature  
Mean Temperature 17 °F -  
Max Temperature 26 °F 38 °F 72 °F (2012)
Min Temperature 8 °F 16 °F -31 °F (1948)
Degree Days  
Heating Degree Days 48    
Moisture  
Dew Point 14 °F    
Average Humidity 86    
Maximum Humidity 100    
Minimum Humidity 69    
Precipitation  
Precipitation 0.00 in - - ()
Sea Level Pressure  
Sea Level Pressure 30.18 in    
Wind  
Wind Speed 11 mph (North)    
Max Wind Speed 21 mph    
Max Gust Speed 26 mph    
Visibility 10 miles    
Events      
Averages and records for this station are not official NWS values.
T = Trace of Precipitation, MM = Missing Value Source: NWS Daily Summary

Daily Weather History Graph

Daily Weather History Graph

Search for Another Location

Airport or City:

Trip Planner

Search our weather history database for the weather conditions in past years. The results will help you decide how hot, cold, wet, or windy it might be!

Date:

Astronomy

Mar. 10, 2013 Rise Set
Actual Time 8:05 AM CDT 7:42 PM CDT
Civil Twilight 7:35 AM CDT 8:12 PM CDT
Nautical Twilight 7:00 AM CDT 8:48 PM CDT
Astronomical Twilight 6:24 AM CDT 9:23 PM CDT
Moon 7:08 AM CDT (3/10) 6:52 PM CDT (3/10)
Length of Visible Light 12h 37m
Length of Day
11h 37m
Waning Crescent, 2% of the Moon is Illuminated
Mar 10
Waning Crescent
Mar 11
New
Mar 19
First Quarter
Mar 27
Full
Apr 2
Last Quarter

Hourly Weather History & Observations

Time (CDT) Temp. Windchill Dew Point Humidity Pressure Visibility Wind Dir Wind Speed Gust Speed Precip Events Conditions
12:15 AM 14.0 °F -3.9 °F 14.0 °F 100% 30.14 in 10.0 mi NNW 20.7 mph 26.5 mph N/A   Clear
12:35 AM 14.0 °F -2.5 °F 14.0 °F 100% 30.14 in 10.0 mi NNW 17.3 mph - N/A   Clear
12:55 AM 14.0 °F -0.2 °F 12.2 °F 93% 30.14 in 10.0 mi NNW 12.7 mph - N/A   Clear
1:15 AM 14.0 °F 0.5 °F 12.2 °F 93% 30.15 in 10.0 mi NNW 11.5 mph 20.7 mph N/A   Clear
1:35 AM 14.0 °F 0.5 °F 12.2 °F 93% 30.16 in 10.0 mi NNW 11.5 mph - N/A   Clear
1:55 AM 14.0 °F 2.0 °F 10.4 °F 86% 30.16 in 10.0 mi NNW 9.2 mph 16.1 mph N/A   Clear
3:15 AM 14.0 °F 1.2 °F 10.4 °F 86% 30.15 in 10.0 mi NW 10.4 mph - N/A   Clear
3:35 AM 12.2 °F -1.8 °F 10.4 °F 92% 30.15 in 10.0 mi NW 11.5 mph - N/A   Clear
3:55 AM 12.2 °F -0.2 °F 10.4 °F 92% 30.15 in 10.0 mi NW 9.2 mph - N/A   Clear
4:15 AM 12.2 °F 0.7 °F 10.4 °F 92% 30.16 in 10.0 mi NW 8.1 mph 16.1 mph N/A   Clear
4:35 AM 12.2 °F -0.2 °F 10.4 °F 92% 30.17 in 10.0 mi NW 9.2 mph - N/A   Clear
4:55 AM 12.2 °F 1.7 °F 10.4 °F 92% 30.18 in 10.0 mi WNW 6.9 mph - N/A   Mostly Cloudy
5:15 AM 12.2 °F 1.7 °F 10.4 °F 92% 30.19 in 10.0 mi WNW 6.9 mph - N/A   Overcast
5:35 AM 10.4 °F 0.8 °F 10.4 °F 100% 30.20 in 10.0 mi NW 5.8 mph - N/A   Overcast
5:55 AM 10.4 °F -2.4 °F 10.4 °F 100% 30.21 in 10.0 mi NW 9.2 mph - N/A   Mostly Cloudy
6:15 AM 10.4 °F -4.1 °F 8.6 °F 92% 30.22 in 10.0 mi NW 11.5 mph - N/A   Partly Cloudy
7:35 AM 8.6 °F -6.3 °F 8.6 °F 100% 30.24 in 10.0 mi NW 11.5 mph - N/A   Scattered Clouds
7:55 AM 8.6 °F -7.0 °F 8.6 °F 100% 30.24 in 10.0 mi NW 12.7 mph - N/A   Mostly Cloudy
8:15 AM 8.6 °F -7.0 °F 8.6 °F 100% 30.25 in 9.0 mi NW 12.7 mph - N/A   Overcast
8:35 AM 8.6 °F -7.0 °F 8.6 °F 100% 30.25 in 9.0 mi NW 12.7 mph - N/A   Mostly Cloudy
8:55 AM 10.4 °F -3.3 °F 8.6 °F 92% 30.26 in 10.0 mi NNW 10.4 mph - N/A   Partly Cloudy
9:15 AM 10.4 °F -6.0 °F 8.6 °F 92% 30.27 in 10.0 mi NNW 15.0 mph - N/A   Clear
9:35 AM 12.2 °F -1.8 °F 8.6 °F 85% 30.28 in 10.0 mi NNW 11.5 mph - N/A   Clear
9:55 AM 12.2 °F -1.8 °F 8.6 °F 85% 30.27 in 10.0 mi NNW 11.5 mph - N/A   Clear
10:15 AM 14.0 °F 1.2 °F 10.4 °F 86% 30.28 in 10.0 mi NW 10.4 mph - N/A   Clear
10:35 AM 14.0 °F 0.5 °F 10.4 °F 86% 30.28 in 10.0 mi NW 11.5 mph - N/A   Clear
10:55 AM 15.8 °F 2.1 °F 12.2 °F 86% 30.27 in 10.0 mi NW 12.7 mph - N/A   Clear
11:15 AM 15.8 °F 3.4 °F 12.2 °F 86% 30.27 in 10.0 mi NW 10.4 mph - N/A   Clear
11:35 AM 17.6 °F 6.4 °F 14.0 °F 86% 30.27 in 10.0 mi NNW 9.2 mph - N/A   Clear
11:55 AM 19.4 °F 10.4 °F 14.0 °F 80% 30.26 in 10.0 mi North 6.9 mph - N/A   Clear
12:15 PM 19.4 °F 10.4 °F 14.0 °F 80% 30.25 in 10.0 mi North 6.9 mph - N/A   Clear
12:35 PM 19.4 °F 9.5 °F 15.8 °F 86% 30.24 in 10.0 mi North 8.1 mph - N/A   Clear
12:55 PM 21.2 °F 10.1 °F 15.8 °F 80% 30.24 in 10.0 mi North 10.4 mph - N/A   Clear
1:15 PM 23.0 °F 12.4 °F 15.8 °F 74% 30.23 in 10.0 mi North 10.4 mph - N/A   Clear
1:35 PM 23.0 °F 12.4 °F 15.8 °F 74% 30.23 in 10.0 mi NW 10.4 mph - N/A   Partly Cloudy
1:55 PM 23.0 °F 13.9 °F 15.8 °F 74% 30.20 in 10.0 mi North 8.1 mph - N/A   Partly Cloudy
2:15 PM 24.8 °F 17.9 °F 15.8 °F 69% 30.19 in 10.0 mi North 5.8 mph - N/A   Clear
2:35 PM 24.8 °F 15.3 °F 17.6 °F 74% 30.19 in 10.0 mi North 9.2 mph - N/A   Clear
2:55 PM 24.8 °F 15.3 °F 17.6 °F 74% 30.19 in 10.0 mi North 9.2 mph - N/A   Clear
3:15 PM 24.8 °F 14.6 °F 17.6 °F 74% 30.19 in 10.0 mi North 10.4 mph - N/A   Scattered Clouds
3:35 PM 24.8 °F 20.5 °F 17.6 °F 74% 30.19 in 10.0 mi NW 3.5 mph - N/A   Mostly Cloudy
3:55 PM 24.8 °F 20.5 °F 17.6 °F 74% 30.18 in 10.0 mi North 3.5 mph - N/A   Mostly Cloudy
4:15 PM 26.6 °F 19.1 °F 17.6 °F 69% 30.17 in 10.0 mi NNW 6.9 mph - N/A   Partly Cloudy
4:35 PM 26.6 °F 21.2 °F 17.6 °F 69% 30.16 in 10.0 mi North 4.6 mph - N/A   Scattered Clouds
4:55 PM 26.6 °F 19.1 °F 17.6 °F 69% 30.16 in 10.0 mi North 6.9 mph - N/A   Partly Cloudy
5:15 PM 26.6 °F 21.2 °F 17.6 °F 69% 30.16 in 10.0 mi North 4.6 mph - N/A   Clear
5:35 PM 24.8 °F 20.5 °F 19.4 °F 80% 30.16 in 10.0 mi NE 3.5 mph - N/A   Partly Cloudy
5:55 PM 26.6 °F 20.0 °F 17.6 °F 69% 30.15 in 10.0 mi NE 5.8 mph - N/A   Clear
6:15 PM 24.8 °F - 17.6 °F 74% 30.16 in 10.0 mi Calm Calm - N/A   Clear
6:35 PM 24.8 °F 20.5 °F 17.6 °F 74% 30.15 in 10.0 mi NE 3.5 mph - N/A   Clear
6:55 PM 24.8 °F 19.1 °F 17.6 °F 74% 30.14 in 10.0 mi NE 4.6 mph - N/A   Clear
7:15 PM 23.0 °F 13.1 °F 17.6 °F 80% 30.13 in 10.0 mi East 9.2 mph - N/A   Clear
7:35 PM 21.2 °F 11.7 °F 15.8 °F 80% 30.13 in 10.0 mi East 8.1 mph - N/A   Clear
7:55 PM 19.4 °F 8.6 °F 15.8 °F 86% 30.12 in 10.0 mi East 9.2 mph - N/A   Clear
8:15 PM 19.4 °F 8.6 °F 15.8 °F 86% 30.12 in 10.0 mi ESE 9.2 mph - N/A   Clear
8:35 PM 17.6 °F 7.3 °F 15.8 °F 93% 30.11 in 10.0 mi East 8.1 mph - N/A   Clear
9:15 PM 17.6 °F 8.2 °F 14.0 °F 86% 30.10 in 10.0 mi SE 6.9 mph - N/A   Partly Cloudy
9:35 PM 15.8 °F 6.1 °F 15.8 °F 100% 30.10 in 10.0 mi ESE 6.9 mph - N/A   Clear
9:55 PM 17.6 °F 8.2 °F 15.8 °F 93% 30.09 in 10.0 mi ESE 6.9 mph - N/A   Clear
10:15 PM 15.8 °F 5.1 °F 15.8 °F 100% 30.07 in 10.0 mi ESE 8.1 mph - N/A   Clear
10:35 PM 15.8 °F 7.2 °F 14.0 °F 93% 30.07 in 10.0 mi ESE 5.8 mph - N/A   Clear
10:55 PM 15.8 °F - 14.0 °F 93% 30.07 in 10.0 mi Calm Calm - N/A   Clear
11:15 PM 15.8 °F 10.2 °F 15.8 °F 100% 30.06 in 10.0 mi SE 3.5 mph - N/A   Clear
11:35 PM 15.8 °F 8.6 °F 14.0 °F 93% 30.05 in 10.0 mi ESE 4.6 mph - N/A   Clear
12:35 AM 15.8 °F 8.6 °F 15.8 °F 100% 30.02 in 10.0 mi ESE 4.6 mph - N/A   Clear